Last 24 Hours

Top Stn/Summit - 11,053ft

15 Minute Data | America/Los_Angeles
as of 7/14/24 4:32 PM PDT
Date & Time Temp (°F) WindChill (°F) RH (%) Dew Pt (°F) Wet Bulb (°F) Wind Spd (mph) Wind Dir (°) Wind Gust (mph) Wind Gst Dir (°) Daily Min Temp (°F) Daily Max Temp (°F) Daily Max Wind (mph) Max Wind Dir (°)
7/14/24 - 1630 60.3 - 47 39.7 49.8 24.2 S | 181 34.1 S | 180 43.8 60.8 51.2 S | 170
7/14/24 - 1615 59.9 - 50 41.2 50.3 22.1 S | 189 38.2 S | 188 43.8 60.6 51.2 S | 170
7/14/24 - 1600 59.5 - 49 40.4 49.8 24.2 S | 190 39.8 SSW | 206 43.8 60.2 51.2 S | 170
7/14/24 - 1545 59.0 - 49 40.1 49.4 22.6 S | 186 39.8 SSW | 198 43.8 60.2 51.2 S | 170
7/14/24 - 1530 59.6 - 46 39.0 49.2 18.9 S | 179 37.3 S | 191 43.8 60.2 51.2 S | 170
7/14/24 - 1515 58.9 - 50 40.4 49.5 17.0 S | 174 34.0 SSE | 167 43.8 60.1 51.2 S | 170
7/14/24 - 1500 59.0 - 49 39.9 49.3 18.9 S | 178 36.0 S | 191 43.8 59.6 51.2 S | 170
7/14/24 - 1445 59.2 - 50 40.5 49.7 14.3 S | 173 31.5 S | 180 43.8 59.6 51.2 S | 170
7/14/24 - 1430 58.9 - 51 40.7 49.7 20.2 S | 186 31.3 S | 189 43.8 59.4 51.2 S | 170
7/14/24 - 1415 57.7 - 53 40.9 49.3 21.8 S | 189 30.9 SSW | 195 43.8 58.6 51.2 S | 170
7/14/24 - 1400 57.6 - 53 40.8 49.2 18.9 S | 182 31.9 SSW | 194 43.8 58.4 51.2 S | 170
7/14/24 - 1345 57.7 - 54 41.3 49.4 17.3 S | 180 32.7 S | 179 43.8 58.4 51.2 S | 170
7/14/24 - 1330 56.6 - 57 41.5 49.1 19.1 S | 175 29.9 S | 186 43.8 57.1 51.2 S | 170
7/14/24 - 1315 56.3 - 58 41.8 49.1 18.0 S | 177 28.3 SW | 224 43.8 56.6 51.2 S | 170
7/14/24 - 1300 55.3 - 61 41.9 48.8 15.2 S | 178 27.0 S | 186 43.8 55.8 51.2 S | 170
7/14/24 - 1245 55.1 - 60 41.6 48.5 12.5 S | 175 25.3 S | 180 43.8 55.8 51.2 S | 170
7/14/24 - 1230 54.4 - 60 40.6 47.8 13.7 S | 180 22.7 SSW | 192 43.8 55.1 51.2 S | 170
7/14/24 - 1215 53.1 - 59 39.4 46.6 15.1 S | 176 26.4 SSE | 166 43.8 53.6 51.2 S | 170
7/14/24 - 1200 52.8 - 63 40.4 46.9 16.7 S | 179 28.5 S | 179 43.8 53.1 51.2 S | 170
7/14/24 - 1145 52.5 - 67 41.9 47.5 21.1 S | 183 26.6 S | 186 43.8 52.7 51.2 S | 170
7/14/24 - 1130 51.7 - 68 41.5 47.0 16.3 S | 178 24.6 SSW | 192 43.8 52.5 51.2 S | 170
7/14/24 - 1115 50.5 - 69 40.8 46.0 16.6 S | 182 21.2 S | 183 43.8 51.6 51.2 S | 170
7/14/24 - 1100 48.6 41.7 71 39.7 44.6 20.7 SSW | 192 23.5 SSW | 192 43.8 51.6 51.2 S | 170
7/14/24 - 1045 47.0 40.3 72 38.6 43.3 16.8 SSW | 193 20.3 SSW | 192 43.8 51.6 51.2 S | 170
7/14/24 - 1030 45.6 38.0 77 38.7 42.6 19.4 S | 186 24.4 S | 190 43.8 51.6 51.2 S | 170
7/14/24 - 1015 44.3 36.7 83 39.4 42.3 17.5 S | 185 24.7 S | 191 43.8 51.6 51.2 S | 170
7/14/24 - 1000 44.5 34.6 84 40.0 42.7 29.7 S | 184 46.3 S | 183 43.8 51.6 51.2 S | 170
7/14/24 - 0945 48.2 38.7 77 41.5 45.3 37.5 S | 184 50.7 S | 184 46.3 51.6 51.2 S | 170
7/14/24 - 0930 47.6 38.7 82 42.4 45.4 30.6 S | 182 48.4 S | 179 46.3 51.6 51.2 S | 170
7/14/24 - 0915 46.9 37.0 87 43.3 45.5 36.3 S | 182 51.2 S | 170 46.3 51.6 51.2 S | 170
7/14/24 - 0900 47.1 37.8 87 43.5 45.8 32.6 S | 182 43.6 S | 179 46.7 51.6 43.6 S | 179
7/14/24 - 0845 47.6 39.3 84 43.2 45.9 26.6 S | 182 34.0 S | 182 47.0 51.6 34.0 S | 182
7/14/24 - 0830 49.2 42.0 79 43.0 46.5 23.6 S | 183 31.0 S | 179 47.0 51.6 31.1 S | 191
7/14/24 - 0815 49.4 42.5 76 42.0 46.1 21.7 S | 183 28.0 S | 180 47.0 51.6 31.1 S | 191
7/14/24 - 0800 49.1 41.8 75 41.6 45.8 23.5 S | 184 27.5 S | 186 47.0 51.6 31.1 S | 191
7/14/24 - 0745 49.4 41.8 76 42.1 46.2 26.2 S | 186 31.1 S | 191 47.0 51.6 31.1 S | 191
7/14/24 - 0730 48.4 40.6 77 41.6 45.4 25.4 S | 183 30.4 S | 190 47.0 51.6 30.4 S | 190
7/14/24 - 0715 49.7 43.0 72 41.1 45.8 21.4 S | 183 26.4 S | 182 47.0 51.6 28.8 S | 178
7/14/24 - 0700 48.4 40.9 75 40.7 45.0 23.2 S | 180 28.8 S | 178 47.0 51.6 28.8 S | 178
7/14/24 - 0645 48.4 40.5 74 40.6 44.9 25.7 S | 184 28.5 S | 182 47.0 51.6 28.7 S | 188
7/14/24 - 0630 48.2 40.4 73 39.9 44.5 24.4 S | 182 28.7 S | 188 47.0 51.6 28.7 S | 188
7/14/24 - 0615 47.1 39.0 74 39.3 43.7 24.0 S | 183 26.8 S | 189 47.0 51.6 26.8 S | 189
7/14/24 - 0600 47.4 39.8 74 39.7 44.0 22.2 S | 186 25.6 S | 185 47.0 51.6 25.6 S | 185
7/14/24 - 0545 47.3 39.7 76 40.0 44.1 22.0 S | 182 24.6 S | 183 47.0 51.6 24.7 S | 180
7/14/24 - 0530 47.7 40.1 75 40.2 44.4 22.6 S | 184 24.7 S | 180 47.4 51.6 24.7 S | 180
7/14/24 - 0515 47.6 40.3 76 40.3 44.4 20.5 S | 185 23.1 S | 185 47.4 51.6 23.1 S | 185
7/14/24 - 0500 47.5 40.1 74 39.6 44.0 21.0 S | 186 22.5 S | 182 47.4 51.6 22.8 S | 187
7/14/24 - 0445 47.8 40.6 72 39.1 43.9 20.6 S | 188 22.6 S | 188 47.6 51.6 22.8 S | 187
7/14/24 - 0430 48.0 40.8 68 38.1 43.6 20.7 S | 188 22.8 S | 187 47.8 51.6 22.8 S | 187
7/14/24 - 0415 48.3 41.4 65 37.0 43.3 19.7 SSW | 193 22.1 S | 190 48.1 51.6 22.1 S | 190
7/14/24 - 0400 48.8 42.8 62 36.3 43.2 16.3 SSW | 200 18.1 SSW | 197 48.4 51.6 18.1 SSW | 197
7/14/24 - 0345 49.3 43.8 60 36.0 43.3 15.0 SSW | 197 16.6 SSW | 196 49.1 51.6 16.6 SSW | 196
7/14/24 - 0330 49.8 44.5 59 35.8 43.5 14.2 SSW | 205 15.9 SSW | 201 49.1 51.6 15.9 SSW | 201
7/14/24 - 0315 50.5 - 57 35.8 43.8 12.6 SW | 221 14.4 SW | 215 49.1 51.6 14.4 SW | 215
7/14/24 - 0300 51.0 - 56 35.8 44.1 10.0 SW | 228 13.3 SW | 220 49.1 51.6 13.3 SW | 220
7/14/24 - 0245 50.2 - 57 35.8 43.7 6.8 SW | 224 8.9 SW | 214 49.1 51.6 11.6 NW | 324
7/14/24 - 0230 49.9 - 58 35.9 43.5 2.2 WSW | 244 5.8 WSW | 242 49.1 51.6 11.6 NW | 324
7/14/24 - 0215 50.3 - 58 36.1 43.8 0.4 W | 265 0.4 W | 267 49.1 51.6 11.6 NW | 324
7/14/24 - 0200 51.2 - 57 36.6 44.5 0.6 WNW | 287 2.8 WNW | 303 49.1 51.6 11.6 NW | 324
7/14/24 - 0145 51.1 - 56 36.1 44.2 6.4 NW | 317 8.2 NW | 322 49.1 51.6 11.6 NW | 324
7/14/24 - 0130 50.5 - 60 37.0 44.3 7.5 NW | 323 8.5 NNW | 333 49.1 50.7 11.6 NW | 324
7/14/24 - 0115 49.7 45.8 63 37.6 44.2 9.7 NW | 318 11.6 NW | 324 49.1 50.4 11.6 NW | 324
7/14/24 - 0100 49.2 44.6 65 38.0 44.1 11.5 NW | 324 12.7 NW | 323 46.5 64.0 59.2 SSW | 199
7/14/24 - 0045 49.5 45.0 64 37.8 44.2 11.1 NNW | 332 12.3 NNW | 340 46.5 64.0 59.2 SSW | 199
7/14/24 - 0030 49.2 43.8 66 38.2 44.2 14.1 NNW | 330 18.2 NNW | 331 46.5 64.0 59.2 SSW | 199
7/14/24 - 0015 49.1 43.1 66 38.4 44.2 16.8 NNW | 331 19.2 NNW | 328 46.5 64.0 59.2 SSW | 199
7/14/24 - 0000 49.1 42.4 67 38.5 44.3 19.7 NW | 323 21.8 NW | 319 46.5 64.0 59.2 SSW | 199
7/13/24 - 2345 48.2 41.0 70 39.0 44.1 21.5 NW | 326 23.3 NNW | 327 46.5 64.0 59.2 SSW | 199
7/13/24 - 2330 48.2 41.2 72 39.7 44.5 20.4 NW | 322 21.5 NW | 325 46.5 64.0 59.2 SSW | 199
7/13/24 - 2315 48.1 41.4 75 40.6 44.8 18.5 NW | 324 20.2 NW | 324 46.5 64.0 59.2 SSW | 199
7/13/24 - 2300 49.1 42.8 69 39.4 44.7 18.2 NW | 324 20.4 NW | 319 46.5 64.0 59.2 SSW | 199
7/13/24 - 2245 49.2 42.8 68 39.2 44.7 18.4 NW | 325 20.2 NW | 321 46.5 64.0 59.2 SSW | 199
7/13/24 - 2230 48.9 42.9 70 39.6 44.7 16.8 NNW | 330 18.4 NNW | 329 46.5 64.0 59.2 SSW | 199
7/13/24 - 2215 48.3 42.7 74 40.6 44.9 14.2 NNW | 334 15.4 NNW | 331 46.5 64.0 59.2 SSW | 199
7/13/24 - 2200 47.7 42.0 79 41.6 45.1 13.6 NNW | 331 14.4 NNW | 333 46.5 64.0 59.2 SSW | 199
7/13/24 - 2145 46.7 40.7 89 43.6 45.6 13.8 NNW | 334 18.5 NNW | 344 46.5 64.0 59.2 SSW | 199
7/13/24 - 2130 46.9 39.4 89 43.8 45.8 20.2 NW | 323 24.8 NNW | 340 46.7 64.0 59.2 SSW | 199
7/13/24 - 2115 48.6 42.6 79 42.4 45.9 16.1 WNW | 295 20.2 NNW | 348 46.8 64.0 59.2 SSW | 199
7/13/24 - 2100 50.8 - 65 39.3 45.5 9.7 WNW | 301 20.7 NNW | 344 46.8 64.0 59.2 SSW | 199
7/13/24 - 2045 50.0 - 72 41.4 46.1 12.0 NW | 314 20.1 NW | 308 46.8 64.0 59.2 SSW | 199
7/13/24 - 2030 50.3 - 67 39.9 45.5 17.2 NW | 312 27.2 NW | 322 46.8 64.0 59.2 SSW | 199
7/13/24 - 2015 52.3 - 60 38.9 46.0 17.7 W | 278 29.0 NW | 324 46.8 64.0 59.2 SSW | 199
7/13/24 - 2000 52.9 - 53 36.3 45.2 16.9 SSW | 195 18.9 SSW | 194 46.8 64.0 59.2 SSW | 199
7/13/24 - 1945 52.9 - 53 36.1 45.0 18.2 SSW | 192 21.4 SSW | 194 46.8 64.0 59.2 SSW | 199
7/13/24 - 1930 53.0 - 52 36.0 45.1 18.8 S | 187 20.9 S | 189 46.8 64.0 59.2 SSW | 199
7/13/24 - 1915 52.8 - 53 36.0 45.0 19.9 S | 190 21.2 S | 190 46.8 64.0 59.2 SSW | 199
7/13/24 - 1900 52.4 - 54 36.2 44.8 21.7 S | 189 23.6 S | 189 46.8 64.0 59.2 SSW | 199
7/13/24 - 1845 52.1 - 55 36.4 44.8 22.5 S | 184 24.7 S | 185 46.8 64.0 59.2 SSW | 199
7/13/24 - 1830 51.2 - 59 37.2 44.7 23.2 S | 183 27.2 S | 185 46.8 64.0 59.2 SSW | 199
7/13/24 - 1815 49.8 43.0 64 38.2 44.5 22.4 S | 180 27.9 S | 180 46.8 64.0 59.2 SSW | 199
7/13/24 - 1800 48.0 40.3 71 39.1 44.0 23.7 S | 176 32.5 S | 190 46.8 64.0 59.2 SSW | 199
7/13/24 - 1745 47.1 38.0 77 40.2 44.1 30.1 S | 182 43.6 S | 186 46.8 64.0 59.2 SSW | 199
7/13/24 - 1730 47.5 36.9 72 39.0 43.7 44.1 SSW | 192 59.2 SSW | 199 47.1 64.0 59.2 SSW | 199
7/13/24 - 1715 49.7 40.8 67 39.1 44.8 37.0 SW | 221 56.3 SSW | 209 48.2 64.0 58.2 W | 260
7/13/24 - 1700 48.8 40.2 68 38.7 44.2 31.8 WSW | 240 44.4 W | 259 48.2 64.0 58.2 W | 260
7/13/24 - 1645 49.4 39.6 70 40.2 45.2 44.3 W | 261 58.2 W | 260 48.2 64.0 58.2 W | 260
7/13/24 - 1630 56.0 - 58 41.4 48.8 30.6 WSW | 237 49.5 W | 267 51.6 64.0 49.5 W | 267
Max 60.3 45.8 89 43.8 50.3 44.3 - 59.2 - 51.6 64.0 59.2 -
Avg 50.8 40.9 66 39.6 45.6 19.7 - 26.5 - - - - -
Min 44.3 34.6 46 35.8 42.3 0.4 - 0.4 - 43.8 50.4 11.6 -